sensor_id;sensor_type;location;lat;lon;timestamp;P1;durP1;ratioP1;P2;durP2;ratioP2
60078;SDS011;45951;45.824;8.824;2023-12-20T00:00:21;5.85;;;3.88;;
60078;SDS011;45951;45.824;8.824;2023-12-20T00:02:02;6.55;;;3.67;;
60078;SDS011;45951;45.824;8.824;2023-12-20T00:03:42;6.43;;;3.90;;
60078;SDS011;45951;45.824;8.824;2023-12-20T00:05:23;6.47;;;4.43;;
60078;SDS011;45951;45.824;8.824;2023-12-20T00:07:03;6.07;;;3.85;;
60078;SDS011;45951;45.824;8.824;2023-12-20T00:08:43;8.10;;;4.35;;
60078;SDS011;45951;45.824;8.824;2023-12-20T00:10:24;6.82;;;3.60;;
60078;SDS011;45951;45.824;8.824;2023-12-20T00:12:04;6.47;;;4.15;;
60078;SDS011;45951;45.824;8.824;2023-12-20T00:13:45;5.95;;;3.72;;
60078;SDS011;45951;45.824;8.824;2023-12-20T00:15:25;7.85;;;4.40;;
60078;SDS011;45951;45.824;8.824;2023-12-20T00:17:05;8.20;;;4.40;;
60078;SDS011;45951;45.824;8.824;2023-12-20T00:18:46;8.40;;;4.32;;
60078;SDS011;45951;45.824;8.824;2023-12-20T00:20:26;5.97;;;3.80;;
60078;SDS011;45951;45.824;8.824;2023-12-20T00:22:07;8.30;;;5.00;;
60078;SDS011;45951;45.824;8.824;2023-12-20T00:23:47;7.13;;;4.18;;
60078;SDS011;45951;45.824;8.824;2023-12-20T00:25:27;7.30;;;4.40;;
60078;SDS011;45951;45.824;8.824;2023-12-20T00:27:08;7.63;;;4.15;;
60078;SDS011;45951;45.824;8.824;2023-12-20T00:28:48;6.65;;;4.47;;
60078;SDS011;45951;45.824;8.824;2023-12-20T00:30:28;6.72;;;4.40;;
60078;SDS011;45951;45.824;8.824;2023-12-20T00:32:09;8.80;;;4.30;;
60078;SDS011;45951;45.824;8.824;2023-12-20T00:33:49;6.38;;;4.05;;
60078;SDS011;45951;45.824;8.824;2023-12-20T00:35:29;7.22;;;3.85;;
60078;SDS011;45951;45.824;8.824;2023-12-20T00:37:09;7.07;;;4.05;;
60078;SDS011;45951;45.824;8.824;2023-12-20T00:38:50;6.70;;;4.10;;
60078;SDS011;45951;45.824;8.824;2023-12-20T00:40:31;7.50;;;4.68;;
60078;SDS011;45951;45.824;8.824;2023-12-20T00:42:11;9.38;;;4.53;;
60078;SDS011;45951;45.824;8.824;2023-12-20T00:43:52;6.22;;;3.88;;
60078;SDS011;45951;45.824;8.824;2023-12-20T00:45:32;9.40;;;4.28;;
60078;SDS011;45951;45.824;8.824;2023-12-20T00:47:12;6.60;;;4.45;;
60078;SDS011;45951;45.824;8.824;2023-12-20T00:48:53;7.15;;;4.57;;
60078;SDS011;45951;45.824;8.824;2023-12-20T00:50:33;7.78;;;4.97;;
60078;SDS011;45951;45.824;8.824;2023-12-20T00:52:14;7.43;;;5.28;;
60078;SDS011;45951;45.824;8.824;2023-12-20T00:53:54;8.05;;;4.60;;
60078;SDS011;45951;45.824;8.824;2023-12-20T00:55:34;7.13;;;4.82;;
60078;SDS011;45951;45.824;8.824;2023-12-20T00:57:15;9.32;;;6.57;;
60078;SDS011;45951;45.824;8.824;2023-12-20T00:58:55;10.60;;;7.28;;
60078;SDS011;45951;45.824;8.824;2023-12-20T01:00:35;11.82;;;7.57;;
60078;SDS011;45951;45.824;8.824;2023-12-20T01:02:16;11.57;;;7.22;;
60078;SDS011;45951;45.824;8.824;2023-12-20T01:03:56;9.27;;;6.90;;
60078;SDS011;45951;45.824;8.824;2023-12-20T01:05:36;10.32;;;7.10;;
60078;SDS011;45951;45.824;8.824;2023-12-20T01:07:16;10.23;;;6.65;;
60078;SDS011;45951;45.824;8.824;2023-12-20T01:08:57;9.00;;;6.50;;
60078;SDS011;45951;45.824;8.824;2023-12-20T01:10:37;9.40;;;5.38;;
60078;SDS011;45951;45.824;8.824;2023-12-20T01:12:17;11.13;;;7.10;;
60078;SDS011;45951;45.824;8.824;2023-12-20T01:13:58;9.32;;;6.22;;
60078;SDS011;45951;45.824;8.824;2023-12-20T01:15:38;9.80;;;6.43;;
60078;SDS011;45951;45.824;8.824;2023-12-20T01:17:18;8.27;;;5.72;;
60078;SDS011;45951;45.824;8.824;2023-12-20T01:18:58;7.97;;;5.50;;
60078;SDS011;45951;45.824;8.824;2023-12-20T01:20:39;8.35;;;5.50;;
60078;SDS011;45951;45.824;8.824;2023-12-20T01:22:19;7.35;;;4.70;;
60078;SDS011;45951;45.824;8.824;2023-12-20T01:23:59;6.28;;;4.40;;
60078;SDS011;45951;45.824;8.824;2023-12-20T01:25:40;6.90;;;4.80;;
60078;SDS011;45951;45.824;8.824;2023-12-20T01:27:20;9.63;;;4.47;;
60078;SDS011;45951;45.824;8.824;2023-12-20T01:29:00;6.40;;;4.07;;
60078;SDS011;45951;45.824;8.824;2023-12-20T01:30:41;5.78;;;3.88;;
60078;SDS011;45951;45.824;8.824;2023-12-20T01:32:21;7.97;;;3.97;;
60078;SDS011;45951;45.824;8.824;2023-12-20T01:34:01;5.55;;;3.97;;
60078;SDS011;45951;45.824;8.824;2023-12-20T01:35:42;6.82;;;3.67;;
60078;SDS011;45951;45.824;8.824;2023-12-20T01:37:22;7.45;;;3.90;;
60078;SDS011;45951;45.824;8.824;2023-12-20T01:39:03;7.35;;;4.10;;
60078;SDS011;45951;45.824;8.824;2023-12-20T01:40:44;6.75;;;4.38;;
60078;SDS011;45951;45.824;8.824;2023-12-20T01:42:24;7.75;;;4.50;;
60078;SDS011;45951;45.824;8.824;2023-12-20T01:44:05;6.63;;;4.20;;
60078;SDS011;45951;45.824;8.824;2023-12-20T01:45:45;7.00;;;4.03;;
60078;SDS011;45951;45.824;8.824;2023-12-20T01:47:26;6.70;;;4.10;;
60078;SDS011;45951;45.824;8.824;2023-12-20T01:49:07;6.88;;;4.20;;
60078;SDS011;45951;45.824;8.824;2023-12-20T01:50:47;6.00;;;4.05;;
60078;SDS011;45951;45.824;8.824;2023-12-20T01:52:28;6.40;;;4.20;;
60078;SDS011;45951;45.824;8.824;2023-12-20T01:54:08;6.45;;;4.10;;
60078;SDS011;45951;45.824;8.824;2023-12-20T01:55:49;7.55;;;4.15;;
60078;SDS011;45951;45.824;8.824;2023-12-20T01:57:30;5.50;;;3.67;;
60078;SDS011;45951;45.824;8.824;2023-12-20T01:59:11;7.57;;;4.75;;
60078;SDS011;45951;45.824;8.824;2023-12-20T02:00:52;7.60;;;3.85;;
60078;SDS011;45951;45.824;8.824;2023-12-20T02:02:32;6.60;;;3.88;;
60078;SDS011;45951;45.824;8.824;2023-12-20T02:04:13;6.70;;;3.90;;
60078;SDS011;45951;45.824;8.824;2023-12-20T02:05:53;6.88;;;4.63;;
60078;SDS011;45951;45.824;8.824;2023-12-20T02:07:34;7.47;;;3.85;;
60078;SDS011;45951;45.824;8.824;2023-12-20T02:09:15;6.72;;;4.22;;
60078;SDS011;45951;45.824;8.824;2023-12-20T02:10:55;6.32;;;4.05;;
60078;SDS011;45951;45.824;8.824;2023-12-20T02:12:36;6.78;;;3.80;;
60078;SDS011;45951;45.824;8.824;2023-12-20T02:14:16;6.88;;;4.10;;
60078;SDS011;45951;45.824;8.824;2023-12-20T02:15:56;7.65;;;4.40;;
60078;SDS011;45951;45.824;8.824;2023-12-20T02:17:37;6.43;;;3.78;;
60078;SDS011;45951;45.824;8.824;2023-12-20T02:19:18;5.75;;;3.70;;
60078;SDS011;45951;45.824;8.824;2023-12-20T02:21:00;6.50;;;3.78;;
60078;SDS011;45951;45.824;8.824;2023-12-20T02:22:40;6.88;;;3.80;;
60078;SDS011;45951;45.824;8.824;2023-12-20T02:24:20;5.85;;;3.75;;
60078;SDS011;45951;45.824;8.824;2023-12-20T02:26:00;6.93;;;3.70;;
60078;SDS011;45951;45.824;8.824;2023-12-20T02:27:41;6.22;;;3.47;;
60078;SDS011;45951;45.824;8.824;2023-12-20T02:29:21;7.82;;;3.90;;
60078;SDS011;45951;45.824;8.824;2023-12-20T02:31:02;7.60;;;4.07;;
60078;SDS011;45951;45.824;8.824;2023-12-20T02:32:42;6.82;;;3.65;;
60078;SDS011;45951;45.824;8.824;2023-12-20T02:34:23;7.60;;;3.90;;
60078;SDS011;45951;45.824;8.824;2023-12-20T02:36:03;5.72;;;3.42;;
60078;SDS011;45951;45.824;8.824;2023-12-20T02:37:44;5.95;;;3.67;;
60078;SDS011;45951;45.824;8.824;2023-12-20T02:39:24;6.82;;;3.70;;
60078;SDS011;45951;45.824;8.824;2023-12-20T02:41:04;5.57;;;3.53;;
60078;SDS011;45951;45.824;8.824;2023-12-20T02:42:45;6.95;;;4.25;;
60078;SDS011;45951;45.824;8.824;2023-12-20T02:44:25;6.93;;;4.03;;
60078;SDS011;45951;45.824;8.824;2023-12-20T02:46:05;6.18;;;3.53;;
60078;SDS011;45951;45.824;8.824;2023-12-20T02:47:45;5.38;;;3.75;;
60078;SDS011;45951;45.824;8.824;2023-12-20T02:49:26;6.68;;;3.67;;
60078;SDS011;45951;45.824;8.824;2023-12-20T02:51:06;6.55;;;4.22;;
60078;SDS011;45951;45.824;8.824;2023-12-20T02:52:46;7.47;;;3.95;;
60078;SDS011;45951;45.824;8.824;2023-12-20T02:54:27;6.00;;;3.67;;
60078;SDS011;45951;45.824;8.824;2023-12-20T02:56:07;6.22;;;3.63;;
60078;SDS011;45951;45.824;8.824;2023-12-20T02:57:47;6.22;;;3.97;;
60078;SDS011;45951;45.824;8.824;2023-12-20T02:59:28;6.68;;;3.65;;
60078;SDS011;45951;45.824;8.824;2023-12-20T03:01:08;7.20;;;3.75;;
60078;SDS011;45951;45.824;8.824;2023-12-20T03:02:48;6.68;;;3.72;;
60078;SDS011;45951;45.824;8.824;2023-12-20T03:04:29;6.40;;;3.92;;
60078;SDS011;45951;45.824;8.824;2023-12-20T03:06:09;6.20;;;3.55;;
60078;SDS011;45951;45.824;8.824;2023-12-20T03:07:49;5.85;;;3.72;;
60078;SDS011;45951;45.824;8.824;2023-12-20T03:09:30;6.07;;;3.53;;
60078;SDS011;45951;45.824;8.824;2023-12-20T03:11:10;6.07;;;3.13;;
60078;SDS011;45951;45.824;8.824;2023-12-20T03:12:51;5.45;;;3.20;;
60078;SDS011;45951;45.824;8.824;2023-12-20T03:14:31;6.13;;;3.60;;
60078;SDS011;45951;45.824;8.824;2023-12-20T03:16:11;6.05;;;3.35;;
60078;SDS011;45951;45.824;8.824;2023-12-20T03:17:52;5.03;;;3.33;;
60078;SDS011;45951;45.824;8.824;2023-12-20T03:19:33;5.57;;;3.10;;
60078;SDS011;45951;45.824;8.824;2023-12-20T03:21:13;6.05;;;2.95;;
60078;SDS011;45951;45.824;8.824;2023-12-20T03:22:53;4.90;;;2.78;;
60078;SDS011;45951;45.824;8.824;2023-12-20T03:24:34;4.47;;;2.95;;
60078;SDS011;45951;45.824;8.824;2023-12-20T03:26:14;5.50;;;2.97;;
60078;SDS011;45951;45.824;8.824;2023-12-20T03:27:54;4.93;;;2.90;;
60078;SDS011;45951;45.824;8.824;2023-12-20T03:29:35;5.10;;;2.95;;
60078;SDS011;45951;45.824;8.824;2023-12-20T03:31:15;4.82;;;2.92;;
60078;SDS011;45951;45.824;8.824;2023-12-20T03:32:55;5.15;;;2.80;;
60078;SDS011;45951;45.824;8.824;2023-12-20T03:34:36;5.57;;;2.83;;
60078;SDS011;45951;45.824;8.824;2023-12-20T03:36:16;4.90;;;2.75;;
60078;SDS011;45951;45.824;8.824;2023-12-20T03:37:56;4.40;;;2.70;;
60078;SDS011;45951;45.824;8.824;2023-12-20T03:39:37;4.22;;;2.70;;
60078;SDS011;45951;45.824;8.824;2023-12-20T03:41:17;4.22;;;2.50;;
60078;SDS011;45951;45.824;8.824;2023-12-20T03:42:57;6.35;;;2.63;;
60078;SDS011;45951;45.824;8.824;2023-12-20T03:44:38;4.40;;;2.50;;
60078;SDS011;45951;45.824;8.824;2023-12-20T03:46:20;4.88;;;2.40;;
60078;SDS011;45951;45.824;8.824;2023-12-20T03:48:00;4.88;;;2.67;;
60078;SDS011;45951;45.824;8.824;2023-12-20T03:49:40;6.50;;;2.92;;
60078;SDS011;45951;45.824;8.824;2023-12-20T03:51:21;5.88;;;2.80;;
60078;SDS011;45951;45.824;8.824;2023-12-20T03:53:01;4.30;;;2.70;;
60078;SDS011;45951;45.824;8.824;2023-12-20T03:54:41;4.32;;;2.65;;
60078;SDS011;45951;45.824;8.824;2023-12-20T03:56:22;4.32;;;2.58;;
60078;SDS011;45951;45.824;8.824;2023-12-20T03:58:03;3.92;;;2.55;;
60078;SDS011;45951;45.824;8.824;2023-12-20T03:59:43;4.70;;;2.78;;
60078;SDS011;45951;45.824;8.824;2023-12-20T04:01:24;4.85;;;2.67;;
60078;SDS011;45951;45.824;8.824;2023-12-20T04:03:04;5.80;;;2.80;;
60078;SDS011;45951;45.824;8.824;2023-12-20T04:04:44;3.85;;;2.65;;
60078;SDS011;45951;45.824;8.824;2023-12-20T04:06:24;4.50;;;2.40;;
60078;SDS011;45951;45.824;8.824;2023-12-20T04:08:05;4.57;;;2.70;;
60078;SDS011;45951;45.824;8.824;2023-12-20T04:09:45;3.80;;;2.15;;
60078;SDS011;45951;45.824;8.824;2023-12-20T04:11:27;4.85;;;2.58;;
60078;SDS011;45951;45.824;8.824;2023-12-20T04:13:07;4.30;;;2.42;;
60078;SDS011;45951;45.824;8.824;2023-12-20T04:14:47;3.60;;;2.10;;
60078;SDS011;45951;45.824;8.824;2023-12-20T04:16:28;3.25;;;1.98;;
60078;SDS011;45951;45.824;8.824;2023-12-20T04:18:08;4.35;;;2.40;;
60078;SDS011;45951;45.824;8.824;2023-12-20T04:19:49;4.25;;;2.40;;
60078;SDS011;45951;45.824;8.824;2023-12-20T04:21:29;4.25;;;2.30;;
60078;SDS011;45951;45.824;8.824;2023-12-20T04:23:10;4.25;;;2.60;;
60078;SDS011;45951;45.824;8.824;2023-12-20T04:24:50;3.58;;;2.28;;
60078;SDS011;45951;45.824;8.824;2023-12-20T04:26:30;4.88;;;2.45;;
60078;SDS011;45951;45.824;8.824;2023-12-20T04:28:11;4.32;;;2.55;;
60078;SDS011;45951;45.824;8.824;2023-12-20T04:29:51;4.68;;;2.80;;
60078;SDS011;45951;45.824;8.824;2023-12-20T04:31:31;5.55;;;2.78;;
60078;SDS011;45951;45.824;8.824;2023-12-20T04:33:12;5.88;;;3.00;;
60078;SDS011;45951;45.824;8.824;2023-12-20T04:34:52;3.28;;;2.13;;
60078;SDS011;45951;45.824;8.824;2023-12-20T04:36:35;4.20;;;2.70;;
60078;SDS011;45951;45.824;8.824;2023-12-20T04:38:15;4.47;;;2.60;;
60078;SDS011;45951;45.824;8.824;2023-12-20T04:39:56;5.60;;;2.55;;
60078;SDS011;45951;45.824;8.824;2023-12-20T04:41:36;5.00;;;2.90;;
60078;SDS011;45951;45.824;8.824;2023-12-20T04:43:17;4.22;;;2.60;;
60078;SDS011;45951;45.824;8.824;2023-12-20T04:44:57;5.55;;;2.97;;
60078;SDS011;45951;45.824;8.824;2023-12-20T04:46:37;5.30;;;3.00;;
60078;SDS011;45951;45.824;8.824;2023-12-20T04:48:18;5.30;;;3.10;;
60078;SDS011;45951;45.824;8.824;2023-12-20T04:49:58;5.75;;;3.00;;
60078;SDS011;45951;45.824;8.824;2023-12-20T04:51:38;5.13;;;3.17;;
60078;SDS011;45951;45.824;8.824;2023-12-20T04:53:19;5.10;;;3.22;;
60078;SDS011;45951;45.824;8.824;2023-12-20T04:54:59;5.53;;;3.45;;
60078;SDS011;45951;45.824;8.824;2023-12-20T04:56:39;6.53;;;3.80;;
60078;SDS011;45951;45.824;8.824;2023-12-20T04:58:20;7.40;;;3.40;;
60078;SDS011;45951;45.824;8.824;2023-12-20T05:00:00;7.10;;;3.88;;
60078;SDS011;45951;45.824;8.824;2023-12-20T05:01:40;7.28;;;3.90;;
60078;SDS011;45951;45.824;8.824;2023-12-20T05:03:21;6.22;;;3.67;;
60078;SDS011;45951;45.824;8.824;2023-12-20T05:05:01;6.50;;;3.90;;
60078;SDS011;45951;45.824;8.824;2023-12-20T05:06:42;7.25;;;4.13;;
60078;SDS011;45951;45.824;8.824;2023-12-20T05:08:22;6.97;;;4.25;;
60078;SDS011;45951;45.824;8.824;2023-12-20T05:10:03;7.03;;;3.90;;
60078;SDS011;45951;45.824;8.824;2023-12-20T05:11:44;6.68;;;4.13;;
60078;SDS011;45951;45.824;8.824;2023-12-20T05:13:24;6.07;;;4.00;;
60078;SDS011;45951;45.824;8.824;2023-12-20T05:15:05;7.63;;;4.60;;
60078;SDS011;45951;45.824;8.824;2023-12-20T05:16:46;10.02;;;5.03;;
60078;SDS011;45951;45.824;8.824;2023-12-20T05:18:26;9.50;;;5.07;;
60078;SDS011;45951;45.824;8.824;2023-12-20T05:20:07;8.15;;;4.63;;
60078;SDS011;45951;45.824;8.824;2023-12-20T05:21:48;7.32;;;4.20;;
60078;SDS011;45951;45.824;8.824;2023-12-20T05:23:28;7.22;;;4.30;;
60078;SDS011;45951;45.824;8.824;2023-12-20T05:25:08;6.38;;;3.90;;
60078;SDS011;45951;45.824;8.824;2023-12-20T05:26:48;6.80;;;3.55;;
60078;SDS011;45951;45.824;8.824;2023-12-20T05:28:29;6.03;;;3.55;;
60078;SDS011;45951;45.824;8.824;2023-12-20T05:30:09;6.07;;;3.50;;
60078;SDS011;45951;45.824;8.824;2023-12-20T05:31:50;5.18;;;3.20;;
60078;SDS011;45951;45.824;8.824;2023-12-20T05:33:30;5.30;;;3.33;;
60078;SDS011;45951;45.824;8.824;2023-12-20T05:35:11;7.13;;;3.85;;
60078;SDS011;45951;45.824;8.824;2023-12-20T05:36:51;6.38;;;4.00;;
60078;SDS011;45951;45.824;8.824;2023-12-20T05:38:31;5.97;;;4.00;;
60078;SDS011;45951;45.824;8.824;2023-12-20T05:40:12;6.93;;;4.20;;
60078;SDS011;45951;45.824;8.824;2023-12-20T05:41:52;5.78;;;4.03;;
60078;SDS011;45951;45.824;8.824;2023-12-20T05:43:32;7.55;;;4.00;;
60078;SDS011;45951;45.824;8.824;2023-12-20T05:45:14;5.63;;;3.67;;
60078;SDS011;45951;45.824;8.824;2023-12-20T05:46:55;6.57;;;3.83;;
60078;SDS011;45951;45.824;8.824;2023-12-20T05:48:35;6.55;;;3.65;;
60078;SDS011;45951;45.824;8.824;2023-12-20T05:50:15;6.25;;;3.60;;
60078;SDS011;45951;45.824;8.824;2023-12-20T05:51:56;7.22;;;3.72;;
60078;SDS011;45951;45.824;8.824;2023-12-20T05:53:36;5.18;;;3.33;;
60078;SDS011;45951;45.824;8.824;2023-12-20T05:55:16;6.25;;;3.75;;
60078;SDS011;45951;45.824;8.824;2023-12-20T05:56:57;6.70;;;4.05;;
60078;SDS011;45951;45.824;8.824;2023-12-20T05:58:38;14.15;;;8.07;;
60078;SDS011;45951;45.824;8.824;2023-12-20T06:00:19;11.93;;;7.03;;
60078;SDS011;45951;45.824;8.824;2023-12-20T06:01:59;7.05;;;4.25;;
60078;SDS011;45951;45.824;8.824;2023-12-20T06:03:41;8.05;;;4.18;;
60078;SDS011;45951;45.824;8.824;2023-12-20T06:05:21;6.45;;;4.18;;
60078;SDS011;45951;45.824;8.824;2023-12-20T06:07:02;6.03;;;3.97;;
60078;SDS011;45951;45.824;8.824;2023-12-20T06:08:43;7.50;;;4.10;;
60078;SDS011;45951;45.824;8.824;2023-12-20T06:10:23;7.25;;;4.07;;
60078;SDS011;45951;45.824;8.824;2023-12-20T06:12:04;7.13;;;4.10;;
60078;SDS011;45951;45.824;8.824;2023-12-20T06:13:44;6.15;;;3.65;;
60078;SDS011;45951;45.824;8.824;2023-12-20T06:15:25;7.22;;;4.32;;
60078;SDS011;45951;45.824;8.824;2023-12-20T06:17:05;10.70;;;4.07;;
60078;SDS011;45951;45.824;8.824;2023-12-20T06:18:45;7.20;;;3.72;;
60078;SDS011;45951;45.824;8.824;2023-12-20T06:20:26;5.75;;;3.65;;
60078;SDS011;45951;45.824;8.824;2023-12-20T06:22:06;5.35;;;3.42;;
60078;SDS011;45951;45.824;8.824;2023-12-20T06:23:46;6.88;;;3.35;;
60078;SDS011;45951;45.824;8.824;2023-12-20T06:25:27;7.35;;;3.53;;
60078;SDS011;45951;45.824;8.824;2023-12-20T06:27:07;10.02;;;4.47;;
60078;SDS011;45951;45.824;8.824;2023-12-20T06:28:47;8.15;;;4.20;;
60078;SDS011;45951;45.824;8.824;2023-12-20T06:30:28;8.15;;;4.10;;
60078;SDS011;45951;45.824;8.824;2023-12-20T06:32:08;7.90;;;4.05;;
60078;SDS011;45951;45.824;8.824;2023-12-20T06:33:49;7.55;;;3.88;;
60078;SDS011;45951;45.824;8.824;2023-12-20T06:35:37;8.00;;;4.05;;
60078;SDS011;45951;45.824;8.824;2023-12-20T06:37:17;7.05;;;3.60;;
60078;SDS011;45951;45.824;8.824;2023-12-20T06:38:57;7.20;;;3.60;;
60078;SDS011;45951;45.824;8.824;2023-12-20T06:40:38;8.35;;;4.50;;
60078;SDS011;45951;45.824;8.824;2023-12-20T06:42:18;7.43;;;3.58;;
60078;SDS011;45951;45.824;8.824;2023-12-20T06:43:58;7.97;;;4.38;;
60078;SDS011;45951;45.824;8.824;2023-12-20T06:45:39;8.13;;;3.80;;
60078;SDS011;45951;45.824;8.824;2023-12-20T06:47:19;7.47;;;3.78;;
60078;SDS011;45951;45.824;8.824;2023-12-20T06:48:59;7.30;;;4.55;;
60078;SDS011;45951;45.824;8.824;2023-12-20T06:50:40;8.70;;;6.90;;
60078;SDS011;45951;45.824;8.824;2023-12-20T06:52:20;10.55;;;5.78;;
60078;SDS011;45951;45.824;8.824;2023-12-20T06:54:00;10.90;;;5.32;;
60078;SDS011;45951;45.824;8.824;2023-12-20T06:55:42;7.20;;;4.28;;
60078;SDS011;45951;45.824;8.824;2023-12-20T06:57:22;5.53;;;3.55;;
60078;SDS011;45951;45.824;8.824;2023-12-20T06:59:03;6.63;;;3.65;;
60078;SDS011;45951;45.824;8.824;2023-12-20T07:00:43;6.85;;;3.80;;
60078;SDS011;45951;45.824;8.824;2023-12-20T07:02:24;7.47;;;3.92;;
60078;SDS011;45951;45.824;8.824;2023-12-20T07:04:04;9.07;;;3.75;;
60078;SDS011;45951;45.824;8.824;2023-12-20T07:05:44;10.27;;;3.97;;
60078;SDS011;45951;45.824;8.824;2023-12-20T07:07:25;7.93;;;3.90;;
60078;SDS011;45951;45.824;8.824;2023-12-20T07:09:06;7.03;;;4.07;;
60078;SDS011;45951;45.824;8.824;2023-12-20T07:10:46;6.60;;;3.95;;
60078;SDS011;45951;45.824;8.824;2023-12-20T07:12:26;8.13;;;4.85;;
60078;SDS011;45951;45.824;8.824;2023-12-20T07:14:07;6.85;;;4.38;;
60078;SDS011;45951;45.824;8.824;2023-12-20T07:15:47;8.13;;;4.88;;
60078;SDS011;45951;45.824;8.824;2023-12-20T07:17:28;8.23;;;4.38;;
60078;SDS011;45951;45.824;8.824;2023-12-20T07:19:08;8.30;;;4.75;;
60078;SDS011;45951;45.824;8.824;2023-12-20T07:20:48;9.50;;;4.75;;
60078;SDS011;45951;45.824;8.824;2023-12-20T07:22:32;7.38;;;4.38;;
60078;SDS011;45951;45.824;8.824;2023-12-20T07:24:13;8.95;;;4.60;;
60078;SDS011;45951;45.824;8.824;2023-12-20T07:25:53;6.60;;;4.97;;
60078;SDS011;45951;45.824;8.824;2023-12-20T07:27:33;9.70;;;4.57;;
60078;SDS011;45951;45.824;8.824;2023-12-20T07:29:14;12.38;;;4.88;;
60078;SDS011;45951;45.824;8.824;2023-12-20T07:30:54;8.25;;;4.22;;
60078;SDS011;45951;45.824;8.824;2023-12-20T07:32:34;6.95;;;4.63;;
60078;SDS011;45951;45.824;8.824;2023-12-20T07:34:15;9.30;;;5.00;;
60078;SDS011;45951;45.824;8.824;2023-12-20T07:35:55;8.38;;;4.60;;
60078;SDS011;45951;45.824;8.824;2023-12-20T07:37:35;6.88;;;4.50;;
60078;SDS011;45951;45.824;8.824;2023-12-20T07:39:15;7.97;;;4.55;;
60078;SDS011;45951;45.824;8.824;2023-12-20T07:40:56;11.15;;;6.15;;
60078;SDS011;45951;45.824;8.824;2023-12-20T07:42:36;7.72;;;4.90;;
60078;SDS011;45951;45.824;8.824;2023-12-20T07:44:16;8.82;;;4.00;;
60078;SDS011;45951;45.824;8.824;2023-12-20T07:45:57;10.07;;;4.85;;
60078;SDS011;45951;45.824;8.824;2023-12-20T07:47:37;9.85;;;4.70;;
60078;SDS011;45951;45.824;8.824;2023-12-20T07:49:18;8.73;;;4.45;;
60078;SDS011;45951;45.824;8.824;2023-12-20T07:50:59;8.80;;;4.30;;
60078;SDS011;45951;45.824;8.824;2023-12-20T07:52:39;7.97;;;4.55;;
60078;SDS011;45951;45.824;8.824;2023-12-20T07:54:19;8.10;;;4.50;;
60078;SDS011;45951;45.824;8.824;2023-12-20T07:56:00;13.25;;;4.00;;
60078;SDS011;45951;45.824;8.824;2023-12-20T07:57:40;6.38;;;4.00;;
60078;SDS011;45951;45.824;8.824;2023-12-20T07:59:20;7.78;;;4.40;;
60078;SDS011;45951;45.824;8.824;2023-12-20T08:01:01;7.65;;;3.83;;
60078;SDS011;45951;45.824;8.824;2023-12-20T08:02:41;7.82;;;4.18;;
60078;SDS011;45951;45.824;8.824;2023-12-20T08:04:22;11.93;;;5.05;;
60078;SDS011;45951;45.824;8.824;2023-12-20T08:06:02;10.27;;;5.07;;
60078;SDS011;45951;45.824;8.824;2023-12-20T08:07:42;8.60;;;4.38;;
60078;SDS011;45951;45.824;8.824;2023-12-20T08:09:23;8.90;;;4.78;;
60078;SDS011;45951;45.824;8.824;2023-12-20T08:11:03;12.52;;;5.38;;
60078;SDS011;45951;45.824;8.824;2023-12-20T08:12:43;9.55;;;4.60;;
60078;SDS011;45951;45.824;8.824;2023-12-20T08:14:24;11.48;;;5.40;;
60078;SDS011;45951;45.824;8.824;2023-12-20T08:16:04;14.60;;;5.25;;
60078;SDS011;45951;45.824;8.824;2023-12-20T08:17:45;7.85;;;4.82;;
60078;SDS011;45951;45.824;8.824;2023-12-20T08:19:25;12.07;;;5.50;;
60078;SDS011;45951;45.824;8.824;2023-12-20T08:21:06;9.43;;;4.82;;
60078;SDS011;45951;45.824;8.824;2023-12-20T08:22:48;12.18;;;5.05;;
60078;SDS011;45951;45.824;8.824;2023-12-20T08:24:29;8.23;;;4.82;;
60078;SDS011;45951;45.824;8.824;2023-12-20T08:26:09;11.15;;;5.70;;
60078;SDS011;45951;45.824;8.824;2023-12-20T08:27:50;10.98;;;5.80;;
60078;SDS011;45951;45.824;8.824;2023-12-20T08:29:30;13.25;;;5.40;;
60078;SDS011;45951;45.824;8.824;2023-12-20T08:31:14;13.57;;;7.50;;
60078;SDS011;45951;45.824;8.824;2023-12-20T08:32:56;12.35;;;7.50;;
60078;SDS011;45951;45.824;8.824;2023-12-20T08:34:37;9.40;;;5.55;;
60078;SDS011;45951;45.824;8.824;2023-12-20T08:36:18;14.68;;;6.18;;
60078;SDS011;45951;45.824;8.824;2023-12-20T08:38:01;13.50;;;6.30;;
60078;SDS011;45951;45.824;8.824;2023-12-20T08:39:41;7.85;;;4.40;;
60078;SDS011;45951;45.824;8.824;2023-12-20T08:41:23;11.02;;;5.60;;
60078;SDS011;45951;45.824;8.824;2023-12-20T08:43:03;14.70;;;6.03;;
60078;SDS011;45951;45.824;8.824;2023-12-20T08:44:44;9.48;;;4.93;;
60078;SDS011;45951;45.824;8.824;2023-12-20T08:46:24;7.95;;;5.18;;
60078;SDS011;45951;45.824;8.824;2023-12-20T08:48:05;9.55;;;5.30;;
60078;SDS011;45951;45.824;8.824;2023-12-20T08:49:46;8.32;;;4.93;;
60078;SDS011;45951;45.824;8.824;2023-12-20T08:51:26;10.85;;;4.82;;
60078;SDS011;45951;45.824;8.824;2023-12-20T08:53:07;10.02;;;5.50;;
60078;SDS011;45951;45.824;8.824;2023-12-20T08:54:47;11.82;;;5.32;;
60078;SDS011;45951;45.824;8.824;2023-12-20T08:56:27;8.10;;;5.00;;
60078;SDS011;45951;45.824;8.824;2023-12-20T08:58:08;10.18;;;5.05;;
60078;SDS011;45951;45.824;8.824;2023-12-20T08:59:48;11.38;;;5.03;;
60078;SDS011;45951;45.824;8.824;2023-12-20T09:01:29;11.65;;;5.28;;
60078;SDS011;45951;45.824;8.824;2023-12-20T09:03:09;7.78;;;4.40;;
60078;SDS011;45951;45.824;8.824;2023-12-20T09:04:50;7.95;;;4.68;;
60078;SDS011;45951;45.824;8.824;2023-12-20T09:06:30;10.75;;;4.88;;
60078;SDS011;45951;45.824;8.824;2023-12-20T09:08:10;7.75;;;4.97;;
60078;SDS011;45951;45.824;8.824;2023-12-20T09:09:51;11.07;;;5.05;;
60078;SDS011;45951;45.824;8.824;2023-12-20T09:11:32;14.05;;;5.22;;
60078;SDS011;45951;45.824;8.824;2023-12-20T09:13:12;9.90;;;5.20;;
60078;SDS011;45951;45.824;8.824;2023-12-20T09:14:52;10.02;;;5.88;;
60078;SDS011;45951;45.824;8.824;2023-12-20T09:16:33;8.60;;;5.25;;
60078;SDS011;45951;45.824;8.824;2023-12-20T09:18:13;9.38;;;5.38;;
60078;SDS011;45951;45.824;8.824;2023-12-20T09:19:53;8.75;;;5.22;;
60078;SDS011;45951;45.824;8.824;2023-12-20T09:21:34;9.65;;;5.45;;
60078;SDS011;45951;45.824;8.824;2023-12-20T09:23:14;8.40;;;5.47;;
60078;SDS011;45951;45.824;8.824;2023-12-20T09:24:54;11.00;;;5.45;;
60078;SDS011;45951;45.824;8.824;2023-12-20T09:26:34;8.75;;;4.93;;
60078;SDS011;45951;45.824;8.824;2023-12-20T09:28:15;7.90;;;5.05;;
60078;SDS011;45951;45.824;8.824;2023-12-20T09:29:55;11.30;;;6.05;;
60078;SDS011;45951;45.824;8.824;2023-12-20T09:31:36;7.97;;;5.25;;
60078;SDS011;45951;45.824;8.824;2023-12-20T09:33:16;8.25;;;5.47;;
60078;SDS011;45951;45.824;8.824;2023-12-20T09:34:57;10.27;;;5.45;;
60078;SDS011;45951;45.824;8.824;2023-12-20T09:36:37;9.80;;;5.97;;
60078;SDS011;45951;45.824;8.824;2023-12-20T09:38:22;11.13;;;5.25;;
60078;SDS011;45951;45.824;8.824;2023-12-20T09:40:03;9.27;;;5.05;;
60078;SDS011;45951;45.824;8.824;2023-12-20T09:41:44;7.95;;;5.00;;
60078;SDS011;45951;45.824;8.824;2023-12-20T09:43:26;7.78;;;4.88;;
60078;SDS011;45951;45.824;8.824;2023-12-20T09:45:08;10.23;;;6.53;;
60078;SDS011;45951;45.824;8.824;2023-12-20T09:46:50;8.25;;;5.65;;
60078;SDS011;45951;45.824;8.824;2023-12-20T09:48:30;8.90;;;5.13;;
60078;SDS011;45951;45.824;8.824;2023-12-20T09:50:11;10.65;;;5.20;;
60078;SDS011;45951;45.824;8.824;2023-12-20T09:51:53;9.13;;;4.82;;
60078;SDS011;45951;45.824;8.824;2023-12-20T09:53:33;11.20;;;5.50;;
60078;SDS011;45951;45.824;8.824;2023-12-20T09:55:16;10.52;;;5.70;;
60078;SDS011;45951;45.824;8.824;2023-12-20T09:56:57;10.07;;;5.35;;
60078;SDS011;45951;45.824;8.824;2023-12-20T09:58:38;8.93;;;4.82;;
60078;SDS011;45951;45.824;8.824;2023-12-20T10:00:19;7.13;;;4.68;;
60078;SDS011;45951;45.824;8.824;2023-12-20T10:01:59;9.35;;;5.13;;
60078;SDS011;45951;45.824;8.824;2023-12-20T10:03:43;7.22;;;5.07;;